createdAt,value
2023-02-11T00:01:35.013Z,71.40
2023-02-11T00:04:02.505Z,71.00
2023-02-11T00:06:30.658Z,71.33
2023-02-11T00:08:57.664Z,71.50
2023-02-11T00:11:26.537Z,71.60
2023-02-11T00:13:53.139Z,71.53
2023-02-11T00:16:21.253Z,71.50
2023-02-11T00:18:48.705Z,71.68
2023-02-11T00:21:17.722Z,71.74
2023-02-11T00:23:45.686Z,71.77
2023-02-11T00:26:17.882Z,72.04
2023-02-11T00:28:46.266Z,71.65
2023-02-11T00:31:14.047Z,71.76
2023-02-11T00:33:41.337Z,71.24
2023-02-11T00:36:11.729Z,70.97
2023-02-11T00:38:38.413Z,71.29
2023-02-11T00:41:06.069Z,71.41
2023-02-11T00:43:32.638Z,71.45
2023-02-11T00:45:59.787Z,71.08
2023-02-11T00:48:26.535Z,71.46
2023-02-11T00:50:53.234Z,71.60
2023-02-11T00:53:19.848Z,71.65
2023-02-11T00:55:46.433Z,71.43
2023-02-11T00:58:13.017Z,71.08
2023-02-11T01:00:39.575Z,70.91
2023-02-11T01:03:06.609Z,70.91
2023-02-11T01:05:33.500Z,71.09
2023-02-11T01:08:00.170Z,71.07
2023-02-11T01:10:27.060Z,70.96
2023-02-11T01:12:53.650Z,70.86
2023-02-11T01:15:21.466Z,70.93
2023-02-11T01:17:48.364Z,71.20
2023-02-11T01:20:21.932Z,71.08
2023-02-11T01:22:48.694Z,70.82
2023-02-11T01:25:15.851Z,71.16
2023-02-11T01:27:42.798Z,70.99
2023-02-11T01:30:12.085Z,71.15
2023-02-11T01:32:39.694Z,70.98
2023-02-11T01:35:07.092Z,70.65
2023-02-11T01:37:36.172Z,70.80
2023-02-11T01:40:06.017Z,70.50
2023-02-11T01:42:34.670Z,70.45
2023-02-11T01:45:21.686Z,70.49
2023-02-11T01:47:48.273Z,70.76
2023-02-11T01:50:14.905Z,70.85
2023-02-11T01:52:42.612Z,70.66
2023-02-11T01:55:31.272Z,69.96
2023-02-11T01:58:03.127Z,70.32
2023-02-11T02:00:38.894Z,69.98
2023-02-11T02:03:15.317Z,70.27
2023-02-11T02:05:57.064Z,70.26
2023-02-11T02:08:35.781Z,69.63
2023-02-11T02:11:03.582Z,69.74
2023-02-11T02:13:33.916Z,69.36
2023-02-11T02:16:09.518Z,69.32
2023-02-11T02:18:39.330Z,69.57
2023-02-11T02:21:43.244Z,68.63
2023-02-11T02:24:38.294Z,68.99
2023-02-11T02:27:13.861Z,68.77
2023-02-11T02:30:18.256Z,68.41
2023-02-11T02:33:16.746Z,68.79
2023-02-11T02:35:48.636Z,68.25
2023-02-11T02:38:33.487Z,68.23
2023-02-11T02:41:16.020Z,68.56
2023-02-11T02:43:49.645Z,68.20
2023-02-11T02:46:22.414Z,68.25
2023-02-11T02:48:52.571Z,68.06
2023-02-11T02:51:53.084Z,68.14
2023-02-11T02:54:41.365Z,68.10
2023-02-11T02:57:19.986Z,68.13
2023-02-11T03:00:13.125Z,68.43
2023-02-11T03:02:42.428Z,67.78
2023-02-11T03:05:18.650Z,67.70
2023-02-11T03:07:55.161Z,67.47
2023-02-11T03:10:28.786Z,67.23
2023-02-11T03:12:56.927Z,67.29
2023-02-11T03:15:28.212Z,67.04
2023-02-11T03:17:59.233Z,67.06
2023-02-11T03:20:28.670Z,66.74
2023-02-11T03:23:02.243Z,66.67
2023-02-11T03:25:34.732Z,66.90
2023-02-11T03:28:14.121Z,66.45
2023-02-11T03:30:53.439Z,66.71
2023-02-11T03:33:28.216Z,66.59
2023-02-11T03:35:59.967Z,66.70
2023-02-11T03:38:32.466Z,67.35
2023-02-11T03:41:01.847Z,67.47
2023-02-11T03:43:34.584Z,67.75
2023-02-11T03:46:03.550Z,68.09
2023-02-11T03:48:34.879Z,67.84
2023-02-11T03:51:05.377Z,68.04
2023-02-11T03:53:31.987Z,67.79
2023-02-11T03:56:02.997Z,67.68
2023-02-11T03:58:30.192Z,67.91
2023-02-11T04:00:56.895Z,67.98
2023-02-11T04:03:23.539Z,67.74
2023-02-11T04:05:50.436Z,67.92
2023-02-11T04:08:17.214Z,67.98
2023-02-11T04:10:43.837Z,68.02
2023-02-11T04:13:10.426Z,67.76
2023-02-11T04:15:37.252Z,67.52
2023-02-11T04:18:04.209Z,67.30
2023-02-11T04:20:31.015Z,67.21
2023-02-11T04:22:57.631Z,67.21
2023-02-11T04:25:24.296Z,67.05
2023-02-11T04:27:50.890Z,67.30
2023-02-11T04:30:17.630Z,67.72
2023-02-11T04:32:44.260Z,67.67
2023-02-11T04:35:10.848Z,67.44
2023-02-11T04:37:37.523Z,67.52
2023-02-11T04:40:04.609Z,67.73
2023-02-11T04:42:31.311Z,67.78
2023-02-11T04:44:57.912Z,67.84
2023-02-11T04:47:24.490Z,67.99
2023-02-11T04:49:51.049Z,67.64
2023-02-11T04:52:17.662Z,67.94
2023-02-11T04:54:44.384Z,68.05
2023-02-11T04:57:10.971Z,68.34
2023-02-11T04:59:37.676Z,68.74
2023-02-11T05:02:04.377Z,68.94
2023-02-11T05:04:31.197Z,69.49
2023-02-11T05:06:58.780Z,69.53
2023-02-11T05:09:25.430Z,70.21
2023-02-11T05:11:52.349Z,70.70
2023-02-11T05:14:19.394Z,70.77
2023-02-11T05:16:46.036Z,70.94
2023-02-11T05:19:12.684Z,71.29
2023-02-11T05:21:40.099Z,71.31
2023-02-11T05:24:09.090Z,71.81
2023-02-11T05:26:35.689Z,72.05
2023-02-11T05:29:02.392Z,72.48
2023-02-11T05:31:29.058Z,72.81
2023-02-11T05:33:55.652Z,73.07
2023-02-11T05:36:22.275Z,73.25
2023-02-11T05:38:49.042Z,73.23
2023-02-11T05:41:15.670Z,73.09
2023-02-11T05:43:42.316Z,73.44
2023-02-11T05:46:09.103Z,73.65
2023-02-11T05:48:35.730Z,73.55
2023-02-11T05:51:02.566Z,73.45
2023-02-11T05:53:29.164Z,73.91
2023-02-11T05:55:55.771Z,74.09
2023-02-11T05:58:22.368Z,74.07
2023-02-11T06:00:49.022Z,74.47
2023-02-11T06:03:15.779Z,74.80
2023-02-11T06:05:43.743Z,75.05
2023-02-11T06:08:10.650Z,75.56
2023-02-11T06:10:37.326Z,75.98
2023-02-11T06:13:04.366Z,76.04
2023-02-11T06:15:30.977Z,76.50
2023-02-11T06:17:57.589Z,76.57
2023-02-11T06:20:24.250Z,76.62
2023-02-11T06:22:50.888Z,77.09
2023-02-11T06:25:17.556Z,77.49
2023-02-11T06:27:44.376Z,77.44
2023-02-11T06:30:11.733Z,77.36
2023-02-11T06:32:46.114Z,77.44
2023-02-11T06:35:14.683Z,76.73
2023-02-11T06:37:42.388Z,76.37
2023-02-11T06:40:10.175Z,75.87
2023-02-11T06:42:39.355Z,75.89
2023-02-11T06:45:08.987Z,75.35
2023-02-11T06:47:35.859Z,75.09
2023-02-11T06:50:02.654Z,74.95
2023-02-11T06:52:30.731Z,74.96
2023-02-11T06:54:58.770Z,74.55
2023-02-11T06:57:26.880Z,75.05
2023-02-11T06:59:56.232Z,74.84
2023-02-11T07:02:24.372Z,74.94
2023-02-11T07:04:52.620Z,75.03
2023-02-11T07:07:20.902Z,74.93
2023-02-11T07:09:49.013Z,74.89
2023-02-11T07:12:17.885Z,74.83
2023-02-11T07:14:48.554Z,74.70
2023-02-11T07:17:16.616Z,75.18
2023-02-11T07:19:44.773Z,75.37
2023-02-11T07:22:12.381Z,75.71
2023-02-11T07:24:40.848Z,75.69
2023-02-11T07:27:09.100Z,75.65
2023-02-11T07:29:36.825Z,75.70
2023-02-11T07:32:05.238Z,76.03
2023-02-11T07:34:33.644Z,76.70
2023-02-11T07:37:01.989Z,76.59
2023-02-11T07:39:30.208Z,77.39
2023-02-11T07:41:58.703Z,77.64
2023-02-11T07:44:28.142Z,77.90
2023-02-11T07:46:56.221Z,77.68
2023-02-11T07:49:24.444Z,77.65
2023-02-11T07:51:52.536Z,78.04
2023-02-11T07:54:20.411Z,78.13
2023-02-11T07:56:48.454Z,78.77
2023-02-11T07:59:16.913Z,78.95
2023-02-11T08:01:45.330Z,78.88
2023-02-11T08:04:13.558Z,79.28
2023-02-11T08:06:43.983Z,79.19
2023-02-11T08:09:17.448Z,79.04
2023-02-11T08:11:46.364Z,78.60
2023-02-11T08:14:14.022Z,78.20
2023-02-11T08:16:42.625Z,78.21
2023-02-11T08:19:16.430Z,78.29
2023-02-11T08:21:45.242Z,77.79
2023-02-11T08:24:15.417Z,78.10
2023-02-11T08:26:44.973Z,77.61
2023-02-11T08:29:15.811Z,76.83
2023-02-11T08:31:46.711Z,76.59
2023-02-11T08:34:14.467Z,76.17
2023-02-11T08:36:42.452Z,75.60
2023-02-11T08:39:21.271Z,75.16
2023-02-11T08:41:53.502Z,74.68
2023-02-11T08:44:21.326Z,74.00
2023-02-11T08:46:48.386Z,73.83
2023-02-11T08:49:16.292Z,73.55
2023-02-11T08:51:43.452Z,73.33
2023-02-11T08:54:10.729Z,72.73
2023-02-11T08:56:38.372Z,72.78
2023-02-11T08:59:05.530Z,72.63
2023-02-11T09:01:33.024Z,72.56
2023-02-11T09:03:59.732Z,72.08
2023-02-11T09:06:27.586Z,71.98
2023-02-11T09:08:55.969Z,72.01
2023-02-11T09:11:30.045Z,71.72
2023-02-11T09:13:56.895Z,71.28
2023-02-11T09:16:26.542Z,71.31
2023-02-11T09:18:55.818Z,71.37
2023-02-11T09:21:22.817Z,71.40
2023-02-11T09:23:49.843Z,71.32
2023-02-11T09:26:25.696Z,71.16
2023-02-11T09:28:52.868Z,71.53
2023-02-11T09:31:22.420Z,71.62
2023-02-11T09:33:51.613Z,71.76
2023-02-11T09:36:21.158Z,71.61
2023-02-11T09:38:48.786Z,72.00
2023-02-11T09:41:24.492Z,71.81
2023-02-11T09:43:54.194Z,71.92
2023-02-11T09:46:21.912Z,71.80
2023-02-11T09:48:52.962Z,71.50
2023-02-11T09:51:28.639Z,72.01
2023-02-11T09:54:02.140Z,71.81
2023-02-11T09:56:31.159Z,72.29
2023-02-11T09:58:57.975Z,72.19
2023-02-11T10:01:53.612Z,72.19
2023-02-11T10:04:49.442Z,72.31
2023-02-11T10:07:30.498Z,72.22
2023-02-11T10:10:21.353Z,72.02
2023-02-11T10:12:53.549Z,71.95
2023-02-11T10:15:41.729Z,71.74
2023-02-11T10:18:26.992Z,71.83
2023-02-11T10:21:24.219Z,72.45
2023-02-11T10:23:54.710Z,71.80
2023-02-11T10:26:21.796Z,71.74
2023-02-11T10:28:53.508Z,71.83
2023-02-11T10:31:34.086Z,71.66
2023-02-11T10:34:05.287Z,71.45
2023-02-11T10:36:38.873Z,71.19
2023-02-11T10:39:17.394Z,70.68
2023-02-11T10:41:49.236Z,70.30
2023-02-11T10:44:24.933Z,70.14
2023-02-11T10:46:52.180Z,70.26
2023-02-11T10:49:45.476Z,70.57
2023-02-11T10:52:21.247Z,70.32
2023-02-11T10:55:01.510Z,70.68
2023-02-11T10:57:34.210Z,70.61
2023-02-11T11:00:22.857Z,70.76
2023-02-11T11:02:56.088Z,70.96
2023-02-11T11:05:33.133Z,70.81
2023-02-11T11:08:10.473Z,71.04
2023-02-11T11:10:44.506Z,71.11
2023-02-11T11:13:24.414Z,71.16
2023-02-11T11:16:29.857Z,71.01
2023-02-11T11:19:08.695Z,71.05
2023-02-11T11:21:46.891Z,71.31
2023-02-11T11:24:29.452Z,71.36
2023-02-11T11:26:59.653Z,71.61
2023-02-11T11:29:35.640Z,71.81
2023-02-11T11:32:16.901Z,71.73
2023-02-11T11:34:57.147Z,71.83
2023-02-11T11:37:28.914Z,72.13
2023-02-11T11:40:16.970Z,71.54
2023-02-11T11:42:43.966Z,71.87
2023-02-11T11:45:19.564Z,71.88
2023-02-11T11:48:18.489Z,71.92
2023-02-11T11:50:47.154Z,71.84
2023-02-11T11:53:40.237Z,71.96
2023-02-11T11:56:14.106Z,72.08
2023-02-11T11:58:40.918Z,71.89
2023-02-11T12:01:20.916Z,72.31
2023-02-11T12:04:25.153Z,72.40
2023-02-11T12:07:22.820Z,72.21
2023-02-11T12:10:08.154Z,72.33
2023-02-11T12:12:47.022Z,72.28
2023-02-11T12:15:39.203Z,72.63
2023-02-11T12:18:05.716Z,72.53
2023-02-11T12:21:11.019Z,72.71
2023-02-11T12:24:15.697Z,72.73
2023-02-11T12:27:01.020Z,73.26
2023-02-11T12:29:46.373Z,73.17
2023-02-11T12:32:31.976Z,73.33
2023-02-11T12:35:11.215Z,73.41
2023-02-11T12:37:57.916Z,73.59
2023-02-11T12:40:50.800Z,74.24
2023-02-11T12:43:24.851Z,74.21
2023-02-11T12:46:11.846Z,74.17
2023-02-11T12:48:44.547Z,74.51
2023-02-11T12:51:49.668Z,74.73
2023-02-11T12:54:45.369Z,74.84
2023-02-11T12:57:32.200Z,75.14
2023-02-11T13:00:00.343Z,75.29
2023-02-11T13:03:04.077Z,75.68
2023-02-11T13:05:49.653Z,75.54
2023-02-11T13:08:18.877Z,75.48
2023-02-11T13:11:17.712Z,75.74
2023-02-11T13:13:55.411Z,75.61
2023-02-11T13:16:48.836Z,75.79
2023-02-11T13:19:30.823Z,75.59
2023-02-11T13:22:07.596Z,75.62
2023-02-11T13:25:15.770Z,75.88
2023-02-11T13:28:00.574Z,75.45
2023-02-11T13:30:35.369Z,75.77
2023-02-11T13:33:04.869Z,75.36
2023-02-11T13:35:34.102Z,75.81
2023-02-11T13:38:03.661Z,75.88
2023-02-11T13:40:34.309Z,75.58
2023-02-11T13:43:02.235Z,75.54
2023-02-11T13:45:45.862Z,75.53
2023-02-11T13:48:25.847Z,75.81
2023-02-11T13:50:56.572Z,75.79
2023-02-11T13:53:23.672Z,75.83
2023-02-11T13:56:03.872Z,75.95
2023-02-11T13:58:30.433Z,76.19
2023-02-11T14:00:58.462Z,75.83
2023-02-11T14:03:51.159Z,76.01
2023-02-11T14:06:39.894Z,75.81
2023-02-11T14:09:39.947Z,76.03
2023-02-11T14:12:33.099Z,76.26
2023-02-11T14:15:04.795Z,75.88
2023-02-11T14:17:34.769Z,75.83
2023-02-11T14:20:04.649Z,75.83
2023-02-11T14:22:47.609Z,75.69
2023-02-11T14:25:25.400Z,75.76
2023-02-11T14:28:08.009Z,75.69
2023-02-11T14:30:40.448Z,75.78
2023-02-11T14:33:16.153Z,75.63
2023-02-11T14:36:06.804Z,75.62
2023-02-11T14:38:42.577Z,75.84
2023-02-11T14:41:23.564Z,75.66
2023-02-11T14:43:55.323Z,75.86
2023-02-11T14:46:23.534Z,75.76
2023-02-11T14:48:53.764Z,75.89
2023-02-11T14:51:31.359Z,75.41
2023-02-11T14:54:03.447Z,75.30
2023-02-11T14:56:32.076Z,75.26
2023-02-11T14:58:58.853Z,75.37
2023-02-11T15:01:34.032Z,75.43
2023-02-11T15:04:06.117Z,75.32
2023-02-11T15:06:34.242Z,75.49
2023-02-11T15:09:05.085Z,75.46
2023-02-11T15:11:37.967Z,75.18
2023-02-11T15:14:34.984Z,75.25
2023-02-11T15:17:06.200Z,75.41
2023-02-11T15:19:42.090Z,75.22
2023-02-11T15:22:20.027Z,75.30
2023-02-11T15:24:58.508Z,75.76
2023-02-11T15:27:25.808Z,75.44
2023-02-11T15:29:52.890Z,75.57
2023-02-11T15:32:25.091Z,75.67
2023-02-11T15:34:53.886Z,75.43
2023-02-11T15:37:26.494Z,75.42
2023-02-11T15:39:54.941Z,75.35
2023-02-11T15:42:26.109Z,75.90
2023-02-11T15:45:29.168Z,76.08
2023-02-11T15:48:21.504Z,76.42
2023-02-11T15:50:54.708Z,76.97
2023-02-11T15:53:29.606Z,77.62
2023-02-11T15:56:32.998Z,78.04
2023-02-11T15:59:09.022Z,78.38
2023-02-11T16:01:38.105Z,78.81
2023-02-11T16:04:05.667Z,78.71
2023-02-11T16:06:39.879Z,78.60
2023-02-11T16:09:26.739Z,78.54
2023-02-11T16:11:56.580Z,78.50
2023-02-11T16:14:32.994Z,78.45
2023-02-11T16:17:04.770Z,77.95
2023-02-11T16:19:33.854Z,78.15
2023-02-11T16:22:07.764Z,78.18
2023-02-11T16:24:36.429Z,78.42
2023-02-11T16:27:06.705Z,78.58
2023-02-11T16:29:36.684Z,78.82
2023-02-11T16:32:09.970Z,79.48
2023-02-11T16:34:37.394Z,79.81
2023-02-11T16:37:05.536Z,80.58
2023-02-11T16:39:32.202Z,81.21
2023-02-11T16:41:59.302Z,81.50
2023-02-11T16:44:26.374Z,82.35
2023-02-11T16:46:53.259Z,82.99
2023-02-11T16:49:24.712Z,83.72
2023-02-11T16:51:56.534Z,84.16
2023-02-11T16:54:24.062Z,84.72
2023-02-11T16:56:50.671Z,85.35
2023-02-11T16:59:17.244Z,85.73
2023-02-11T17:01:45.450Z,86.17
2023-02-11T17:04:27.597Z,86.31
2023-02-11T17:06:55.989Z,86.63
2023-02-11T17:09:30.350Z,86.86
2023-02-11T17:11:57.631Z,87.48
2023-02-11T17:14:24.388Z,87.87
2023-02-11T17:16:51.071Z,87.88
2023-02-11T17:19:19.678Z,88.42
2023-02-11T17:21:48.790Z,88.44
2023-02-11T17:24:15.966Z,88.37
2023-02-11T17:26:43.725Z,88.79
2023-02-11T17:29:12.786Z,88.46
2023-02-11T17:31:40.543Z,88.68
2023-02-11T17:34:07.963Z,88.72
2023-02-11T17:36:34.956Z,88.59
2023-02-11T17:39:01.755Z,88.63
2023-02-11T17:41:28.777Z,88.81
2023-02-11T17:43:58.422Z,88.85
2023-02-11T17:46:25.215Z,88.78
2023-02-11T17:48:53.208Z,89.01
2023-02-11T17:51:34.075Z,88.94
2023-02-11T17:54:03.339Z,88.87
2023-02-11T17:56:33.299Z,89.04
2023-02-11T17:59:02.307Z,89.44
2023-02-11T18:01:31.032Z,89.55
2023-02-11T18:03:57.852Z,89.49
2023-02-11T18:06:24.844Z,89.75
2023-02-11T18:08:52.156Z,90.14
2023-02-11T18:11:19.085Z,90.10
2023-02-11T18:13:45.801Z,90.20
2023-02-11T18:16:15.653Z,90.24
2023-02-11T18:18:43.633Z,90.27
2023-02-11T18:21:15.392Z,90.39
2023-02-11T18:23:42.170Z,90.47
2023-02-11T18:26:10.567Z,90.69
2023-02-11T18:28:38.298Z,90.73
2023-02-11T18:31:05.860Z,90.98
2023-02-11T18:33:33.073Z,90.63
2023-02-11T18:35:59.841Z,90.45
2023-02-11T18:38:26.563Z,90.55
2023-02-11T18:40:56.675Z,90.76
2023-02-11T18:43:23.342Z,90.86
2023-02-11T18:45:50.986Z,90.65
2023-02-11T18:48:18.540Z,90.74
2023-02-11T18:50:46.315Z,90.81
2023-02-11T18:53:14.032Z,91.18
2023-02-11T18:55:42.941Z,91.13
2023-02-11T18:58:09.770Z,91.10
2023-02-11T19:00:45.592Z,91.38
2023-02-11T19:03:12.211Z,91.21
2023-02-11T19:05:47.165Z,91.18
2023-02-11T19:08:14.300Z,91.11
2023-02-11T19:10:47.147Z,91.26
2023-02-11T19:13:14.777Z,91.16
2023-02-11T19:15:42.583Z,91.48
2023-02-11T19:18:09.422Z,91.20
2023-02-11T19:20:39.318Z,91.52
2023-02-11T19:23:05.867Z,91.45
2023-02-11T19:25:32.928Z,91.38
2023-02-11T19:28:00.309Z,91.41
2023-02-11T19:30:27.461Z,91.51
2023-02-11T19:32:57.052Z,91.30
2023-02-11T19:35:24.778Z,91.34
2023-02-11T19:37:51.377Z,91.34
2023-02-11T19:40:18.190Z,91.14
2023-02-11T19:42:44.849Z,91.30
2023-02-11T19:45:11.465Z,91.54
2023-02-11T19:47:38.562Z,91.25
2023-02-11T19:50:06.057Z,91.32
2023-02-11T19:52:32.908Z,91.23
2023-02-11T19:55:00.413Z,91.37
2023-02-11T19:57:27.333Z,91.20
2023-02-11T19:59:55.045Z,91.39
2023-02-11T20:02:21.678Z,91.52
2023-02-11T20:04:48.395Z,91.51
2023-02-11T20:07:14.998Z,91.69
2023-02-11T20:09:42.548Z,91.66
2023-02-11T20:12:10.034Z,91.52
2023-02-11T20:14:36.814Z,91.57
2023-02-11T20:17:03.655Z,91.52
2023-02-11T20:19:30.679Z,91.38
2023-02-11T20:21:57.471Z,91.63
2023-02-11T20:24:25.454Z,91.56
2023-02-11T20:26:55.623Z,91.53
2023-02-11T20:29:23.401Z,91.66
2023-02-11T20:31:50.502Z,91.74
2023-02-11T20:34:17.641Z,91.81
2023-02-11T20:36:51.350Z,91.73
2023-02-11T20:39:18.643Z,91.65
2023-02-11T20:41:46.137Z,91.67
2023-02-11T20:44:13.817Z,91.59
2023-02-11T20:46:43.867Z,91.57
2023-02-11T20:49:12.922Z,91.57
2023-02-11T20:51:39.863Z,91.75
2023-02-11T20:54:07.506Z,91.78
2023-02-11T20:56:36.779Z,91.71
2023-02-11T20:59:04.292Z,91.62
2023-02-11T21:01:37.058Z,91.68
2023-02-11T21:04:07.023Z,91.69
2023-02-11T21:06:37.776Z,91.45
2023-02-11T21:09:06.961Z,91.85
2023-02-11T21:11:33.736Z,91.84
2023-02-11T21:14:00.871Z,91.69
2023-02-11T21:16:27.826Z,91.94
2023-02-11T21:18:55.374Z,91.64
2023-02-11T21:21:22.482Z,91.97
2023-02-11T21:23:49.040Z,92.02
2023-02-11T21:26:16.889Z,92.16
2023-02-11T21:28:44.210Z,92.04
2023-02-11T21:31:22.645Z,91.89
2023-02-11T21:33:50.576Z,91.79
2023-02-11T21:36:17.741Z,91.82
2023-02-11T21:38:44.593Z,91.93
2023-02-11T21:41:12.101Z,92.07
2023-02-11T21:43:38.850Z,92.05
2023-02-11T21:46:11.709Z,92.12
2023-02-11T21:48:38.757Z,92.03
2023-02-11T21:51:07.730Z,92.25
2023-02-11T21:53:34.854Z,92.24
2023-02-11T21:56:10.284Z,92.27
2023-02-11T21:58:37.058Z,92.21
2023-02-11T22:01:25.416Z,92.07
2023-02-11T22:03:52.096Z,92.27
2023-02-11T22:06:21.669Z,92.21
2023-02-11T22:08:52.241Z,92.39
2023-02-11T22:11:19.916Z,92.19
2023-02-11T22:13:46.962Z,92.15
2023-02-11T22:16:16.614Z,92.37
2023-02-11T22:18:46.624Z,92.58
2023-02-11T22:21:16.282Z,92.55
2023-02-11T22:23:42.895Z,92.59
2023-02-11T22:26:22.041Z,92.56
2023-02-11T22:28:49.791Z,92.29
2023-02-11T22:31:19.758Z,92.37
2023-02-11T22:33:46.757Z,92.39
2023-02-11T22:36:16.852Z,92.28
2023-02-11T22:38:43.630Z,92.42
2023-02-11T22:41:11.253Z,92.34
2023-02-11T22:43:38.539Z,92.22
2023-02-11T22:46:07.219Z,92.11
2023-02-11T22:48:35.266Z,92.18
2023-02-11T22:51:10.688Z,92.22
2023-02-11T22:53:37.391Z,92.44
2023-02-11T22:56:07.051Z,92.47
2023-02-11T22:58:34.380Z,92.46
2023-02-11T23:01:01.052Z,92.49
2023-02-11T23:03:28.202Z,92.20
2023-02-11T23:05:55.307Z,92.35
2023-02-11T23:08:22.051Z,92.44
2023-02-11T23:10:49.295Z,92.49
2023-02-11T23:13:16.078Z,92.69
2023-02-11T23:15:44.188Z,92.52
2023-02-11T23:18:11.858Z,92.63
2023-02-11T23:20:40.601Z,92.64
2023-02-11T23:23:07.544Z,92.79
2023-02-11T23:25:34.483Z,92.51
2023-02-11T23:28:01.667Z,92.70
2023-02-11T23:30:28.684Z,92.87
2023-02-11T23:32:55.346Z,92.74
2023-02-11T23:35:23.087Z,92.88
2023-02-11T23:37:51.157Z,92.72
2023-02-11T23:40:18.593Z,92.90
2023-02-11T23:42:45.723Z,92.68
2023-02-11T23:45:12.526Z,92.65
2023-02-11T23:47:39.724Z,92.85
2023-02-11T23:50:08.358Z,92.75
2023-02-11T23:52:35.438Z,92.77
2023-02-11T23:55:02.048Z,92.70
2023-02-11T23:57:28.741Z,92.64
2023-02-11T23:59:55.308Z,92.82
